createdAt,value
2022-12-03T00:01:50.196Z,-1.08
2022-12-03T00:06:52.331Z,-1.11
2022-12-03T00:11:55.983Z,-1.12
2022-12-03T00:16:58.202Z,-1.00
2022-12-03T00:22:00.439Z,-1.18
2022-12-03T00:27:04.250Z,-1.14
2022-12-03T00:32:06.487Z,-1.14
2022-12-03T00:37:08.620Z,-1.15
2022-12-03T00:42:12.570Z,-1.14
2022-12-03T00:47:14.787Z,-1.17
2022-12-03T00:52:17.024Z,-1.25
2022-12-03T00:57:20.454Z,-1.24
2022-12-03T01:02:22.648Z,-1.21
2022-12-03T01:07:25.052Z,-1.20
2022-12-03T01:12:28.644Z,-1.17
2022-12-03T01:17:30.839Z,-1.17
2022-12-03T01:22:32.921Z,-1.11
2022-12-03T01:27:36.264Z,-1.17
2022-12-03T01:32:38.349Z,-1.20
2022-12-03T01:37:40.317Z,-1.23
2022-12-03T01:42:44.393Z,-1.26
2022-12-03T01:47:46.585Z,-1.27
2022-12-03T01:52:48.579Z,-1.31
2022-12-03T01:57:54.543Z,-1.23
2022-12-03T02:02:59.778Z,-1.20
2022-12-03T02:08:02.010Z,-1.24
2022-12-03T02:13:08.071Z,-1.31
2022-12-03T02:18:10.790Z,-1.25
2022-12-03T02:23:21.332Z,-1.24
2022-12-03T02:28:25.083Z,-1.17
2022-12-03T02:33:27.468Z,-1.26
2022-12-03T02:38:32.716Z,-1.25
2022-12-03T02:43:37.618Z,-1.27
2022-12-03T02:48:43.794Z,-1.19
2022-12-03T02:53:52.202Z,-1.27
2022-12-03T02:58:59.536Z,-1.18
2022-12-03T03:04:02.486Z,-1.29
2022-12-03T03:09:04.836Z,-1.27
2022-12-03T03:14:08.183Z,-1.28
2022-12-03T03:19:10.411Z,-1.30
2022-12-03T03:24:12.510Z,-1.35
2022-12-03T03:29:16.382Z,-1.38
2022-12-03T03:34:18.717Z,-1.33
2022-12-03T03:39:20.945Z,-1.33
2022-12-03T03:44:24.667Z,-1.39
2022-12-03T03:49:27.668Z,-1.30
2022-12-03T03:54:29.867Z,-1.39
2022-12-03T03:59:33.831Z,-1.33
2022-12-03T04:04:37.096Z,-1.34
2022-12-03T04:09:39.079Z,-1.42
2022-12-03T04:14:42.740Z,-1.38
2022-12-03T04:19:44.965Z,-1.41
2022-12-03T04:24:47.037Z,-1.42
2022-12-03T04:29:50.474Z,-1.37
2022-12-03T04:34:53.011Z,-1.40
2022-12-03T04:39:55.437Z,-1.40
2022-12-03T04:44:59.289Z,-1.38
2022-12-03T04:50:01.430Z,-1.38
2022-12-03T04:55:03.691Z,-1.28
2022-12-03T05:00:08.889Z,-1.41
2022-12-03T05:05:11.072Z,-1.43
2022-12-03T05:10:13.719Z,-1.41
2022-12-03T05:15:16.925Z,-1.36
2022-12-03T05:20:19.110Z,-1.30
2022-12-03T05:25:21.255Z,-1.40
2022-12-03T05:30:24.826Z,-1.38
2022-12-03T05:35:27.198Z,-1.44
2022-12-03T05:40:29.293Z,-1.50
2022-12-03T05:45:34.461Z,-1.53
2022-12-03T05:50:38.368Z,-1.61
2022-12-03T05:55:40.602Z,-1.66
2022-12-03T06:00:43.752Z,-1.70
2022-12-03T06:05:46.242Z,-1.77
2022-12-03T06:10:48.337Z,-1.74
2022-12-03T06:15:51.809Z,-1.78
2022-12-03T06:20:53.690Z,-1.78
2022-12-03T06:25:55.417Z,-1.78
2022-12-03T06:30:58.548Z,-1.86
2022-12-03T06:36:00.750Z,-1.82
2022-12-03T06:41:02.791Z,-1.73
2022-12-03T06:46:06.679Z,-1.81
2022-12-03T06:51:09.024Z,-1.77
2022-12-03T06:56:11.154Z,-1.69
2022-12-03T07:01:14.889Z,-1.81
2022-12-03T07:06:17.245Z,-1.77
2022-12-03T07:11:19.269Z,-1.76
2022-12-03T07:16:22.950Z,-1.76
2022-12-03T07:21:24.821Z,-1.72
2022-12-03T07:26:27.089Z,-1.74
2022-12-03T07:31:31.111Z,-1.78
2022-12-03T07:36:33.428Z,-1.79
2022-12-03T07:41:35.538Z,-1.72
2022-12-03T07:46:39.501Z,-1.76
2022-12-03T07:51:41.849Z,-1.78
2022-12-03T07:56:43.983Z,-1.69
2022-12-03T08:01:47.705Z,-1.79
2022-12-03T08:06:49.935Z,-1.70
2022-12-03T08:11:52.490Z,-1.67
2022-12-03T08:16:56.277Z,-1.52
2022-12-03T08:22:01.637Z,-1.49
2022-12-03T08:27:15.090Z,-1.38
2022-12-03T08:32:18.629Z,-1.33
2022-12-03T08:37:20.756Z,-1.40
2022-12-03T08:42:25.582Z,-1.42
2022-12-03T08:47:30.179Z,-1.48
2022-12-03T08:52:34.359Z,-1.37
2022-12-03T08:57:36.288Z,-1.19
2022-12-03T09:02:46.440Z,-1.10
2022-12-03T09:07:48.740Z,-0.95
2022-12-03T09:12:50.921Z,-0.96
2022-12-03T09:17:54.605Z,-0.90
2022-12-03T09:22:56.945Z,-0.99
2022-12-03T09:27:59.122Z,-1.06
2022-12-03T09:33:02.293Z,-1.01
2022-12-03T09:38:04.013Z,-1.18
2022-12-03T09:43:06.490Z,-0.98
2022-12-03T09:48:12.649Z,-0.83
2022-12-03T09:53:17.305Z,-0.84
2022-12-03T09:58:19.733Z,-0.81
2022-12-03T10:03:29.905Z,-0.73
2022-12-03T10:08:32.962Z,-0.66
2022-12-03T10:13:35.224Z,-0.66
2022-12-03T10:18:41.970Z,-0.80
2022-12-03T10:23:44.411Z,-0.63
2022-12-03T10:28:47.083Z,-0.56
2022-12-03T10:33:58.680Z,-0.69
2022-12-03T10:39:10.050Z,-0.70
2022-12-03T10:44:17.298Z,-0.60
2022-12-03T10:49:20.894Z,-0.65
2022-12-03T10:54:25.460Z,-0.75
2022-12-03T10:59:31.696Z,-0.71
2022-12-03T11:04:36.113Z,-0.89
2022-12-03T11:09:37.998Z,-0.80
2022-12-03T11:14:59.327Z,-0.66
2022-12-03T11:20:03.518Z,-0.70
2022-12-03T11:25:34.823Z,-0.54
2022-12-03T11:30:59.988Z,-0.60
2022-12-03T11:36:14.698Z,-0.64
2022-12-03T11:41:18.889Z,-0.64
2022-12-03T11:46:24.571Z,-0.62
2022-12-03T11:51:30.082Z,-0.59
2022-12-03T11:56:32.171Z,-0.63
2022-12-03T12:01:38.826Z,-0.66
2022-12-03T12:06:44.320Z,-0.71
2022-12-03T12:11:46.544Z,-0.65
2022-12-03T12:16:50.776Z,-0.62
2022-12-03T12:21:54.784Z,-0.56
2022-12-03T12:26:57.794Z,-0.49
2022-12-03T12:32:15.763Z,-0.51
2022-12-03T12:37:23.373Z,-0.49
2022-12-03T12:42:39.144Z,-0.58
2022-12-03T12:48:02.556Z,-0.73
2022-12-03T12:53:20.910Z,-0.67
2022-12-03T12:58:23.259Z,-0.61
2022-12-03T13:03:28.597Z,-0.65
2022-12-03T13:08:37.406Z,-0.70
2022-12-03T13:13:43.959Z,-0.70
2022-12-03T13:18:47.574Z,-0.71
2022-12-03T13:23:52.899Z,-0.75
2022-12-03T13:28:56.962Z,-0.69
2022-12-03T13:34:00.464Z,-0.74
2022-12-03T13:39:12.486Z,-0.67
2022-12-03T13:44:18.205Z,-0.60
2022-12-03T13:49:22.058Z,-0.57
2022-12-03T13:54:30.449Z,-0.70
2022-12-03T13:59:32.209Z,-0.76
2022-12-03T14:04:34.069Z,-0.71
2022-12-03T14:09:37.257Z,-0.79
2022-12-03T14:14:39.102Z,-0.78
2022-12-03T14:19:40.800Z,-0.81
2022-12-03T14:24:43.995Z,-0.87
2022-12-03T14:29:46.001Z,-0.86
2022-12-03T14:34:48.405Z,-0.85
2022-12-03T14:39:51.814Z,-0.85
2022-12-03T14:44:53.799Z,-0.73
2022-12-03T14:49:55.788Z,-0.85
2022-12-03T14:54:59.771Z,-0.85
2022-12-03T15:00:01.930Z,-0.86
2022-12-03T15:05:04.809Z,-0.86
2022-12-03T15:10:09.140Z,-0.89
2022-12-03T15:15:11.243Z,-0.95
2022-12-03T15:20:13.803Z,-0.92
2022-12-03T15:25:17.024Z,-0.91
2022-12-03T15:30:18.801Z,-0.90
2022-12-03T15:35:20.589Z,-0.95
2022-12-03T15:40:24.028Z,-0.97
2022-12-03T15:45:26.095Z,-0.99
2022-12-03T15:50:28.904Z,-0.94
2022-12-03T15:55:33.308Z,-0.96
2022-12-03T16:00:35.458Z,-0.95
2022-12-03T16:05:37.968Z,-0.87
2022-12-03T16:10:41.769Z,-0.92
2022-12-03T16:15:43.926Z,-0.95
2022-12-03T16:20:46.228Z,-1.00
2022-12-03T16:25:49.528Z,-0.90
2022-12-03T16:30:51.280Z,-0.90
2022-12-03T16:35:53.359Z,-0.89
2022-12-03T16:40:57.218Z,-0.93
2022-12-03T16:45:59.463Z,-0.87
2022-12-03T16:51:01.798Z,-0.84
2022-12-03T16:56:05.779Z,-0.75
2022-12-03T17:01:07.847Z,-0.71
2022-12-03T17:06:09.909Z,-0.79
2022-12-03T17:11:13.490Z,-0.85
2022-12-03T17:16:15.596Z,-0.88
2022-12-03T17:21:17.449Z,-0.81
2022-12-03T17:26:21.422Z,-0.84
2022-12-03T17:31:23.606Z,-0.79
2022-12-03T17:36:25.808Z,-0.84
2022-12-03T17:41:29.180Z,-0.82
2022-12-03T17:46:31.228Z,-0.74
2022-12-03T17:51:33.071Z,-0.61
2022-12-03T17:56:36.776Z,-0.74
2022-12-03T18:01:38.840Z,-0.61
2022-12-03T18:06:41.139Z,-0.71
2022-12-03T18:11:44.499Z,-0.70
2022-12-03T18:16:46.713Z,-0.72
2022-12-03T18:21:48.584Z,-0.66
2022-12-03T18:26:51.850Z,-0.71
2022-12-03T18:31:54.208Z,-0.71
2022-12-03T18:36:56.091Z,-0.69
2022-12-03T18:41:59.186Z,-0.65
2022-12-03T18:47:01.078Z,-0.56
2022-12-03T18:52:03.283Z,-0.69
2022-12-03T18:57:06.698Z,-0.68
2022-12-03T19:02:26.642Z,-0.64
2022-12-03T19:07:36.970Z,-0.66
2022-12-03T19:12:40.222Z,-0.57
2022-12-03T19:17:42.558Z,-0.65
2022-12-03T19:22:44.519Z,-0.61
2022-12-03T19:27:48.076Z,-0.57
2022-12-03T19:32:50.157Z,-0.49
2022-12-03T19:37:51.978Z,-0.57
2022-12-03T19:42:55.588Z,-0.60
2022-12-03T19:47:57.407Z,-0.62
2022-12-03T19:53:00.147Z,-0.65
2022-12-03T19:58:03.938Z,-0.60
2022-12-03T20:03:05.839Z,-0.58
2022-12-03T20:08:09.257Z,-0.56
2022-12-03T20:13:12.664Z,-0.53
2022-12-03T20:18:15.603Z,-0.50
2022-12-03T20:23:17.809Z,-0.55
2022-12-03T20:28:21.588Z,-0.54
2022-12-03T20:33:23.797Z,-0.53
2022-12-03T20:38:26.176Z,-0.57
2022-12-03T20:43:29.711Z,-0.43
2022-12-03T20:48:32.267Z,-0.49
2022-12-03T20:53:35.909Z,-0.41
2022-12-03T20:58:39.785Z,-0.45
2022-12-03T21:03:42.565Z,-0.40
2022-12-03T21:08:46.060Z,-0.38
2022-12-03T21:13:49.753Z,-0.37
2022-12-03T21:18:52.137Z,-0.44
2022-12-03T21:23:54.664Z,-0.45
2022-12-03T21:28:58.563Z,-0.37
2022-12-03T21:34:00.787Z,-0.46
2022-12-03T21:39:03.290Z,-0.42
2022-12-03T21:44:06.601Z,-0.44
2022-12-03T21:49:09.068Z,-0.29
2022-12-03T21:54:11.108Z,-0.45
2022-12-03T21:59:14.712Z,-0.43
2022-12-03T22:04:17.223Z,-0.36
2022-12-03T22:09:24.828Z,-0.30
2022-12-03T22:14:30.198Z,-0.36
2022-12-03T22:19:32.161Z,-0.27
2022-12-03T22:24:33.851Z,-0.33
2022-12-03T22:29:37.088Z,-0.44
2022-12-03T22:34:39.194Z,-0.34
2022-12-03T22:39:41.522Z,-0.40
2022-12-03T22:44:45.095Z,-0.32
2022-12-03T22:49:47.133Z,-0.35
2022-12-03T22:54:49.338Z,-0.38
2022-12-03T22:59:53.606Z,-0.29
2022-12-03T23:04:56.232Z,-0.34
2022-12-03T23:09:58.403Z,-0.29
2022-12-03T23:15:02.162Z,-0.25
2022-12-03T23:20:04.951Z,-0.28
2022-12-03T23:25:09.651Z,-0.33
2022-12-03T23:30:14.659Z,-0.27
2022-12-03T23:35:17.025Z,-0.21
2022-12-03T23:40:19.329Z,-0.20
2022-12-03T23:45:22.804Z,-0.22
2022-12-03T23:50:25.249Z,-0.29
2022-12-03T23:55:27.364Z,-0.31
